Time;durP1;ratioP1;P1;durP2;ratioP2;P2;SDS_P1;SDS_P2;PMS_P1;PMS_P2;Temp;Humidity;BMP_temperature;BMP_pressure;BME280_temperature;BME280_humidity;BME280_pressure;Samples;Min_cycle;Max_cycle;Signal;HPM_P1;HPM_P2
2022/01/06 00:01:38;;;;;;;12.95;2.90;;;3.50;99.90;;;;;;5117042;28;20052;-68
2022/01/06 00:04:04;;;;;;;16.65;2.95;;;3.40;99.90;;;;;;5123805;28;20048;-68
2022/01/06 00:06:32;;;;;;;17.30;2.38;;;3.30;99.90;;;;;;5151649;27;20055;-68
2022/01/06 00:09:00;;;;;;;18.90;2.75;;;3.20;99.90;;;;;;5121020;28;20055;-68
2022/01/06 00:11:26;;;;;;;15.02;2.38;;;3.10;99.90;;;;;;5117278;28;20464;-68
2022/01/06 00:24:26;;;;;;;13.52;2.83;;;2.90;99.90;;;;;;5147066;27;20137;-68
2022/01/06 00:26:52;;;;;;;11.65;2.38;;;2.90;99.90;;;;;;5121324;28;20055;-68
2022/01/06 00:29:19;;;;;;;14.15;2.35;;;2.90;99.90;;;;;;5127852;28;20040;-68
2022/01/06 00:31:46;;;;;;;14.27;2.40;;;2.80;99.90;;;;;;5127554;28;20047;-68
2022/01/06 00:34:12;;;;;;;19.50;2.60;;;3.00;99.90;;;;;;5126943;28;20043;-68
2022/01/06 00:36:40;;;;;;;17.10;2.85;;;3.10;99.90;;;;;;5156390;27;20059;-68
2022/01/06 00:39:07;;;;;;;14.80;2.65;;;3.20;99.90;;;;;;5121243;28;20106;-68
2022/01/06 00:41:34;;;;;;;17.63;2.60;;;3.20;99.90;;;;;;5113845;28;20434;-68
2022/01/06 00:44:01;;;;;;;15.43;3.35;;;3.30;99.90;;;;;;5127068;28;20054;-68
2022/01/06 00:46:27;;;;;;;11.48;3.05;;;3.30;99.90;;;;;;5118435;28;20048;-68
2022/01/06 00:48:52;;;;;;;22.60;2.60;;;3.20;99.90;;;;;;5129017;28;20031;-68
2022/01/06 00:51:18;;;;;;;22.02;3.47;;;3.20;99.90;;;;;;5155004;27;20082;-68
2022/01/06 00:53:44;;;;;;;23.95;3.63;;;3.30;99.90;;;;;;5126196;28;20052;-68
2022/01/06 00:56:09;;;;;;;17.88;2.72;;;3.40;99.90;;;;;;5122245;28;20058;-69
2022/01/06 00:58:35;;;;;;;14.98;2.50;;;3.50;99.90;;;;;;5127021;28;20071;-68
2022/01/06 01:01:01;;;;;;;14.18;2.53;;;3.70;99.90;;;;;;5115859;28;20044;-68
2022/01/06 01:03:27;;;;;;;15.80;2.90;;;3.90;99.90;;;;;;5113920;28;20069;-68
2022/01/06 01:05:55;;;;;;;15.73;2.75;;;3.70;99.90;;;;;;5126155;28;20052;-68
2022/01/06 01:08:21;;;;;;;15.82;2.30;;;3.60;99.90;;;;;;5126147;28;20043;-68
2022/01/06 01:10:49;;;;;;;14.32;2.30;;;3.50;99.90;;;;;;5120907;28;20074;-68
2022/01/06 01:13:15;;;;;;;18.60;3.00;;;3.40;99.90;;;;;;5111089;28;20052;-68
2022/01/06 01:15:49;;;;;;;14.93;2.15;;;3.40;99.90;;;;;;5125119;28;20047;-68
2022/01/06 01:18:18;;;;;;;11.50;2.20;;;3.20;99.90;;;;;;5122995;27;20046;-68
2022/01/06 01:20:44;;;;;;;11.70;2.08;;;3.20;99.90;;;;;;5118835;28;20446;-68
2022/01/06 01:23:10;;;;;;;14.85;2.35;;;3.10;99.90;;;;;;5098395;28;20048;-68
2022/01/06 01:25:36;;;;;;;16.88;2.83;;;3.10;99.90;;;;;;5113666;27;20054;-68
2022/01/06 01:28:04;;;;;;;10.60;2.95;;;3.00;99.90;;;;;;5126695;28;20103;-68
2022/01/06 01:30:32;;;;;;;13.60;2.30;;;2.80;99.90;;;;;;5119462;28;20062;-68
2022/01/06 01:33:00;;;;;;;16.88;2.40;;;2.70;99.90;;;;;;5125420;28;20044;-68
2022/01/06 01:35:32;;;;;;;13.15;2.08;;;2.70;99.90;;;;;;5120110;28;20054;-68
2022/01/06 01:37:59;;;;;;;19.13;2.60;;;2.70;99.90;;;;;;5118968;28;20039;-68
2022/01/06 01:40:25;;;;;;;18.85;2.75;;;2.70;99.90;;;;;;5122107;28;20078;-68
2022/01/06 01:42:51;;;;;;;10.07;2.10;;;2.70;99.90;;;;;;5118608;28;20065;-68
2022/01/06 01:45:17;;;;;;;12.77;2.20;;;2.60;99.90;;;;;;5120867;28;20048;-68
2022/01/06 01:47:45;;;;;;;11.93;2.20;;;2.70;99.90;;;;;;5115018;28;20039;-68
2022/01/06 01:50:16;;;;;;;14.45;2.15;;;2.70;99.90;;;;;;5119205;28;20183;-68
2022/01/06 01:52:53;;;;;;;20.77;2.25;;;2.70;99.90;;;;;;5120572;28;20058;-68
2022/01/06 01:55:22;;;;;;;15.95;2.50;;;2.70;99.90;;;;;;5126377;27;20096;-68
2022/01/06 01:57:49;;;;;;;10.48;2.42;;;2.60;99.90;;;;;;5119566;28;20042;-68
2022/01/06 02:00:17;;;;;;;19.73;2.30;;;2.70;99.90;;;;;;5106977;28;20051;-68
2022/01/06 02:02:43;;;;;;;9.48;2.00;;;2.60;99.90;;;;;;5123209;28;20044;-68
2022/01/06 02:05:09;;;;;;;7.05;1.85;;;2.70;99.90;;;;;;5122391;28;20059;-68
2022/01/06 02:07:41;;;;;;;12.52;2.20;;;2.60;99.90;;;;;;5117346;28;20081;-68
2022/01/06 02:10:09;;;;;;;15.27;2.70;;;2.70;99.90;;;;;;5147706;27;20052;-68
2022/01/06 02:12:37;;;;;;;14.07;2.22;;;2.60;99.90;;;;;;5125327;28;20487;-68
2022/01/06 02:15:06;;;;;;;14.20;2.08;;;2.60;99.90;;;;;;5125440;28;20043;-68
2022/01/06 02:17:32;;;;;;;11.18;2.00;;;2.50;99.90;;;;;;5118454;28;20119;-68
2022/01/06 02:20:00;;;;;;;8.82;1.77;;;2.40;99.90;;;;;;5125218;28;20054;-68
2022/01/06 02:22:27;;;;;;;12.63;1.95;;;2.30;99.90;;;;;;5124229;28;20044;-68
2022/01/06 02:24:53;;;;;;;13.07;2.08;;;2.30;99.90;;;;;;5124990;28;20135;-68
2022/01/06 02:27:20;;;;;;;10.98;1.95;;;2.30;99.90;;;;;;5118238;28;20101;-68
2022/01/06 02:29:50;;;;;;;9.50;1.88;;;2.20;99.90;;;;;;5120977;28;20071;-68
2022/01/06 02:32:17;;;;;;;13.60;2.83;;;2.00;99.90;;;;;;5118425;28;20054;-68
2022/01/06 02:34:47;;;;;;;13.95;2.40;;;1.90;99.90;;;;;;5119143;27;20395;-68
2022/01/06 02:37:14;;;;;;;15.50;2.42;;;2.20;99.90;;;;;;5124396;28;20064;-68
2022/01/06 02:39:43;;;;;;;10.27;2.30;;;2.20;99.90;;;;;;5124295;28;20039;-68
2022/01/06 02:42:10;;;;;;;12.30;2.90;;;2.30;99.90;;;;;;5124658;28;20071;-68
2022/01/06 02:44:38;;;;;;;11.75;1.92;;;2.20;99.90;;;;;;5119042;28;20059;-68
2022/01/06 02:47:05;;;;;;;15.43;2.13;;;2.10;99.90;;;;;;5115277;28;20101;-68
2022/01/06 02:49:31;;;;;;;8.70;1.90;;;2.20;99.90;;;;;;5112816;28;20066;-68
2022/01/06 02:51:58;;;;;;;12.27;1.90;;;2.00;99.90;;;;;;5119595;28;20509;-68
2022/01/06 02:54:23;;;;;;;19.55;2.58;;;2.00;99.90;;;;;;5121831;28;20042;-68
2022/01/06 02:56:49;;;;;;;16.95;2.38;;;2.30;99.90;;;;;;5118345;28;20076;-68
2022/01/06 02:59:15;;;;;;;17.20;2.58;;;2.30;99.90;;;;;;5122523;28;20114;-68
2022/01/06 03:01:44;;;;;;;12.20;2.60;;;2.30;99.90;;;;;;5111120;28;20051;-68
2022/01/06 03:04:11;;;;;;;12.73;2.22;;;2.20;99.90;;;;;;5121435;28;20044;-68
2022/01/06 03:06:41;;;;;;;14.43;2.78;;;2.20;99.90;;;;;;5111321;28;20050;-68
2022/01/06 03:09:08;;;;;;;12.02;2.00;;;2.20;99.90;;;;;;5148200;27;20046;-68
2022/01/06 03:11:40;;;;;;;11.90;2.13;;;2.10;99.90;;;;;;5124523;28;20077;-68
2022/01/06 03:14:05;;;;;;;14.02;2.42;;;2.00;99.90;;;;;;5117018;28;20051;-68
2022/01/06 03:16:31;;;;;;;17.88;2.55;;;2.00;99.90;;;;;;5115966;28;20051;-68
2022/01/06 03:18:57;;;;;;;15.65;2.40;;;2.20;99.90;;;;;;5158450;27;20100;-68
2022/01/06 03:21:22;;;;;;;17.88;2.13;;;2.30;99.90;;;;;;5159143;27;20039;-68
2022/01/06 03:23:48;;;;;;;17.75;3.70;;;2.60;99.90;;;;;;5151661;27;20077;-68
2022/01/06 03:26:14;;;;;;;15.90;2.70;;;2.70;99.90;;;;;;5113097;28;20083;-68
2022/01/06 03:28:39;;;;;;;9.57;2.00;;;2.90;99.90;;;;;;5117021;28;20051;-68
2022/01/06 03:31:05;;;;;;;21.38;3.20;;;2.80;99.90;;;;;;5118839;28;20108;-68
2022/01/06 03:33:31;;;;;;;15.55;2.58;;;2.90;99.90;;;;;;5109581;28;20046;-68
2022/01/06 03:35:56;;;;;;;15.82;2.50;;;3.00;99.90;;;;;;5119943;28;20058;-68
2022/01/06 03:38:22;;;;;;;14.95;2.40;;;3.00;99.90;;;;;;5119098;28;20044;-68
2022/01/06 03:40:48;;;;;;;17.05;3.45;;;3.00;99.90;;;;;;5123267;28;20095;-68
2022/01/06 03:43:14;;;;;;;13.45;2.20;;;3.00;99.90;;;;;;5112815;28;20043;-68
2022/01/06 03:45:39;;;;;;;16.58;2.40;;;3.00;99.90;;;;;;5150873;27;20048;-68
2022/01/06 03:48:05;;;;;;;17.23;4.10;;;2.90;99.90;;;;;;5113268;28;20044;-68
2022/01/06 03:50:31;;;;;;;15.88;2.92;;;3.00;99.90;;;;;;5126251;28;20043;-68
2022/01/06 03:52:57;;;;;;;19.02;2.60;;;3.00;99.90;;;;;;5117909;28;20115;-68
2022/01/06 03:55:23;;;;;;;20.73;3.03;;;3.00;99.90;;;;;;5116461;28;20449;-68
2022/01/06 03:57:49;;;;;;;12.95;2.40;;;3.00;99.90;;;;;;5121449;28;20048;-68
2022/01/06 04:00:18;;;;;;;23.73;2.90;;;3.00;99.90;;;;;;5118977;28;20116;-68
2022/01/06 04:02:45;;;;;;;18.33;2.60;;;2.90;99.90;;;;;;5125882;28;20055;-68
2022/01/06 04:05:12;;;;;;;12.75;2.13;;;2.70;99.90;;;;;;5128851;28;20115;-68
2022/01/06 04:07:39;;;;;;;15.30;2.45;;;2.60;99.90;;;;;;5125812;28;20086;-68
2022/01/06 04:10:07;;;;;;;12.45;1.80;;;2.40;99.90;;;;;;5127326;28;20043;-68
2022/01/06 04:12:37;;;;;;;10.93;2.28;;;2.40;99.90;;;;;;5115607;28;20050;-68
2022/01/06 04:15:04;;;;;;;;;;;2.20;99.90;;;;;;5162031;27;20048;-68
2022/01/06 04:17:29;;;;;;;17.80;2.15;;;2.10;99.90;;;;;;5151684;27;20380;-68
2022/01/06 04:19:55;;;;;;;12.07;2.15;;;2.00;99.90;;;;;;5120226;28;20040;-68
2022/01/06 04:22:21;;;;;;;14.52;2.28;;;1.60;99.90;;;;;;5122859;28;20047;-68
2022/01/06 04:24:47;;;;;;;14.55;2.42;;;1.60;99.90;;;;;;5125638;28;20138;-68
2022/01/06 04:27:12;;;;;;;16.70;2.00;;;1.40;99.90;;;;;;5099135;27;20062;-68
2022/01/06 04:29:38;;;;;;;14.65;2.38;;;1.40;99.90;;;;;;5126260;27;20408;-68
2022/01/06 04:32:04;;;;;;;12.70;2.30;;;1.30;99.90;;;;;;5121751;28;20055;-68
2022/01/06 04:34:30;;;;;;;15.27;2.25;;;1.30;99.90;;;;;;5114659;28;20059;-67
2022/01/06 04:36:58;;;;;;;23.27;2.85;;;1.40;99.90;;;;;;5110225;28;20044;-68
2022/01/06 04:39:24;;;;;;;17.65;3.45;;;1.30;99.90;;;;;;5121899;28;20047;-68
2022/01/06 04:41:50;;;;;;;12.85;2.22;;;1.30;99.90;;;;;;5112946;28;20043;-68
2022/01/06 04:44:16;;;;;;;22.30;2.42;;;1.30;99.90;;;;;;5126821;28;20103;-68
2022/01/06 04:46:42;;;;;;;13.88;2.00;;;1.20;99.90;;;;;;5111857;28;20046;-68
2022/01/06 04:49:08;;;;;;;17.30;2.03;;;1.10;99.90;;;;;;5124295;28;20043;-68
2022/01/06 04:51:34;;;;;;;16.48;3.72;;;1.10;99.90;;;;;;5116806;28;20133;-68
2022/01/06 04:54:00;;;;;;;18.75;2.72;;;1.10;99.90;;;;;;5126161;27;20089;-68
2022/01/06 04:56:25;;;;;;;21.08;3.53;;;1.00;99.90;;;;;;5156151;27;20054;-68
2022/01/06 04:58:51;;;;;;;15.75;1.95;;;1.00;99.90;;;;;;5161133;27;20044;-68
2022/01/06 05:01:17;;;;;;;18.75;2.33;;;1.00;99.90;;;;;;5120934;28;20130;-68
2022/01/06 05:03:43;;;;;;;14.30;2.17;;;1.00;99.90;;;;;;5127793;28;20499;-68
2022/01/06 05:06:08;;;;;;;15.90;2.20;;;0.90;99.90;;;;;;5120935;28;20027;-68
2022/01/06 05:08:34;;;;;;;14.02;2.05;;;0.80;99.90;;;;;;5154916;27;20062;-68
2022/01/06 05:11:00;;;;;;;13.70;2.50;;;0.70;99.90;;;;;;5121158;28;20044;-68
2022/01/06 05:13:26;;;;;;;13.05;2.63;;;0.60;99.90;;;;;;5126660;28;20051;-68
2022/01/06 05:15:52;;;;;;;12.73;2.17;;;0.60;99.90;;;;;;5120733;28;20083;-68
2022/01/06 05:18:18;;;;;;;12.55;2.42;;;0.70;99.90;;;;;;5153926;27;20041;-68
2022/01/06 05:20:43;;;;;;;15.45;2.83;;;0.70;99.90;;;;;;5124140;28;20059;-68
2022/01/06 05:23:11;;;;;;;14.13;3.13;;;0.60;99.90;;;;;;5120466;28;20050;-68
2022/01/06 05:25:37;;;;;;;20.15;2.75;;;0.70;99.90;;;;;;5109515;28;20115;-68
2022/01/06 05:28:03;;;;;;;17.20;2.17;;;0.60;99.90;;;;;;5108601;28;20075;-68
2022/01/06 05:30:28;;;;;;;15.40;2.28;;;0.60;99.90;;;;;;5108130;28;20122;-68
2022/01/06 05:32:54;;;;;;;15.27;2.30;;;0.60;99.90;;;;;;5120145;28;20058;-68
2022/01/06 05:35:20;;;;;;;16.40;2.58;;;0.70;99.90;;;;;;5116855;28;20281;-68
2022/01/06 05:37:46;;;;;;;15.43;2.45;;;0.70;99.90;;;;;;5121753;28;20058;-68
2022/01/06 05:40:13;;;;;;;12.00;2.65;;;0.70;99.90;;;;;;5108901;28;20036;-68
2022/01/06 05:42:39;;;;;;;15.15;3.75;;;0.70;99.90;;;;;;5106924;28;20071;-68
2022/01/06 05:45:06;;;;;;;19.92;3.10;;;0.60;99.90;;;;;;5120211;28;20048;-68
2022/01/06 05:47:32;;;;;;;14.90;2.40;;;0.60;99.90;;;;;;5124740;28;20047;-68
2022/01/06 05:49:57;;;;;;;16.10;2.35;;;0.60;99.90;;;;;;5116896;28;20431;-68
2022/01/06 05:52:23;;;;;;;14.50;2.97;;;0.60;99.90;;;;;;5123474;28;20073;-68
2022/01/06 05:54:50;;;;;;;12.70;2.33;;;0.60;99.90;;;;;;5107856;28;20043;-68
2022/01/06 05:57:16;;;;;;;14.88;2.17;;;0.60;99.90;;;;;;5124805;28;20050;-68
2022/01/06 05:59:42;;;;;;;15.20;2.58;;;0.60;99.90;;;;;;5103900;28;20047;-68
2022/01/06 06:02:08;;;;;;;13.32;2.00;;;0.50;99.90;;;;;;5125496;28;20040;-68
2022/01/06 06:04:34;;;;;;;12.45;2.13;;;0.60;99.90;;;;;;5077853;28;20048;-68
2022/01/06 06:06:59;;;;;;;13.43;2.00;;;0.60;99.90;;;;;;5118519;28;20048;-68
2022/01/06 06:09:25;;;;;;;10.32;2.33;;;0.40;99.90;;;;;;5142187;27;20047;-68
2022/01/06 06:11:51;;;;;;;14.77;3.72;;;0.50;99.90;;;;;;5106233;28;20052;-68
2022/01/06 06:14:17;;;;;;;22.10;2.90;;;0.40;99.90;;;;;;5105925;28;20056;-68
2022/01/06 06:16:42;;;;;;;16.73;2.78;;;0.40;99.90;;;;;;5123269;28;20036;-68
2022/01/06 06:19:08;;;;;;;9.48;1.92;;;0.40;99.90;;;;;;5141085;27;20437;-68
2022/01/06 06:21:34;;;;;;;16.95;2.92;;;0.50;99.90;;;;;;5105511;28;20070;-68
2022/01/06 06:24:00;;;;;;;11.85;2.35;;;0.50;99.90;;;;;;5126480;27;20043;-68
2022/01/06 06:26:25;;;;;;;16.63;2.80;;;0.40;99.90;;;;;;5107521;28;20114;-68
2022/01/06 06:28:51;;;;;;;12.77;2.20;;;0.40;99.90;;;;;;5102013;28;20059;-68
2022/01/06 06:31:17;;;;;;;19.42;2.90;;;0.40;99.90;;;;;;5102212;28;20040;-68
2022/01/06 06:33:43;;;;;;;18.02;2.72;;;0.40;99.90;;;;;;5078361;28;20051;-68
2022/01/06 06:36:08;;;;;;;17.00;2.42;;;0.40;99.90;;;;;;5109831;28;20048;-68
2022/01/06 06:38:34;;;;;;;16.15;2.95;;;0.40;99.90;;;;;;5095391;28;20047;-68
2022/01/06 06:41:00;;;;;;;14.40;2.40;;;0.40;99.90;;;;;;5117870;28;20299;-68
2022/01/06 06:43:25;;;;;;;23.13;2.90;;;0.30;99.90;;;;;;5116422;28;20046;-68
2022/01/06 06:45:51;;;;;;;22.55;3.53;;;0.40;99.90;;;;;;5140348;27;20054;-68
2022/01/06 06:48:17;;;;;;;12.98;2.25;;;0.40;99.90;;;;;;5123803;28;20043;-68
2022/01/06 06:50:42;;;;;;;17.42;2.20;;;0.40;99.90;;;;;;5101318;28;20040;-68
2022/01/06 06:53:08;;;;;;;12.82;2.17;;;0.40;99.90;;;;;;5102851;28;20144;-68
2022/01/06 06:55:34;;;;;;;21.45;2.83;;;0.40;99.90;;;;;;5100367;28;20432;-68
2022/01/06 06:58:01;;;;;;;17.88;2.67;;;0.30;99.90;;;;;;5101902;28;20045;-68
2022/01/06 07:00:27;;;;;;;16.40;2.78;;;0.30;99.90;;;;;;5141875;27;20507;-68
2022/01/06 07:02:53;;;;;;;17.75;2.70;;;0.30;99.90;;;;;;5106764;28;20048;-68
2022/01/06 07:05:18;;;;;;;18.85;2.67;;;0.30;99.90;;;;;;5125533;28;20049;-68
2022/01/06 07:07:45;;;;;;;14.68;2.40;;;0.40;99.90;;;;;;5116163;28;20041;-68
2022/01/06 07:10:11;;;;;;;17.42;3.08;;;0.30;99.90;;;;;;5106897;28;20047;-68
2022/01/06 07:12:45;;;;;;;14.70;2.95;;;0.40;99.90;;;;;;5102426;28;20035;-68
2022/01/06 07:15:13;;;;;;;11.23;2.58;;;0.50;99.90;;;;;;5081913;28;20043;-68
2022/01/06 07:17:39;;;;;;;12.30;2.30;;;0.40;99.90;;;;;;5112324;28;20083;-68
2022/01/06 07:20:06;;;;;;;19.80;2.72;;;0.50;99.90;;;;;;5100457;28;20051;-68
2022/01/06 07:22:32;;;;;;;16.50;2.50;;;0.40;99.90;;;;;;5106491;28;20107;-68
2022/01/06 07:24:58;;;;;;;12.75;2.40;;;0.50;99.90;;;;;;5135190;27;20078;-68
2022/01/06 07:27:24;;;;;;;15.98;2.67;;;0.50;99.90;;;;;;5115337;28;20059;-68
2022/01/06 07:29:49;;;;;;;19.77;2.80;;;0.40;99.90;;;;;;5140956;27;20051;-68
2022/01/06 07:32:15;;;;;;;18.90;2.80;;;0.40;99.90;;;;;;5116075;28;20044;-68
2022/01/06 07:34:41;;;;;;;14.68;2.95;;;0.40;99.90;;;;;;5116197;28;20044;-68
2022/01/06 07:37:07;;;;;;;13.75;3.60;;;0.30;99.90;;;;;;5100270;28;20069;-68
2022/01/06 07:39:32;;;;;;;19.50;2.33;;;0.40;99.90;;;;;;5097948;28;20055;-68
2022/01/06 07:41:58;;;;;;;13.90;2.33;;;0.40;99.90;;;;;;5106700;28;20039;-68
2022/01/06 07:44:24;;;;;;;16.08;3.55;;;0.30;99.90;;;;;;5133102;28;20052;-68
2022/01/06 07:46:50;;;;;;;18.42;3.17;;;0.40;99.90;;;;;;5100476;28;20044;-68
2022/01/06 07:49:16;;;;;;;19.38;3.17;;;0.30;99.90;;;;;;5097830;28;20044;-68
2022/01/06 07:51:41;;;;;;;16.65;3.58;;;0.30;99.90;;;;;;5084701;28;20448;-68
2022/01/06 07:54:07;;;;;;;19.88;3.88;;;0.30;99.90;;;;;;5115487;28;20082;-68
2022/01/06 07:56:34;;;;;;;17.30;3.20;;;0.30;99.90;;;;;;5124853;28;20043;-68
2022/01/06 07:59:00;;;;;;;17.42;3.83;;;0.30;99.90;;;;;;5087451;28;20048;-68
2022/01/06 08:01:25;;;;;;;17.38;3.10;;;0.30;99.90;;;;;;5114953;28;20046;-68
2022/01/06 08:03:52;;;;;;;16.83;3.13;;;0.30;99.90;;;;;;5121090;28;20047;-68
2022/01/06 08:06:18;;;;;;;14.70;2.97;;;0.40;99.90;;;;;;5101156;28;20100;-68
2022/01/06 08:08:45;;;;;;;20.75;2.78;;;0.30;99.90;;;;;;5098804;28;20051;-68
2022/01/06 08:11:11;;;;;;;17.20;3.10;;;0.40;99.90;;;;;;5120234;28;20036;-67
2022/01/06 08:13:37;;;;;;;17.23;2.88;;;0.50;99.90;;;;;;5101640;27;20071;-68
2022/01/06 08:16:03;;;;;;;16.42;3.47;;;0.50;99.90;;;;;;5090505;28;20040;-69
2022/01/06 08:18:29;;;;;;;18.23;2.65;;;0.60;99.90;;;;;;5103320;28;20047;-68
2022/01/06 08:20:55;;;;;;;18.13;2.92;;;0.60;99.90;;;;;;5122057;28;20048;-68
2022/01/06 08:23:21;;;;;;;21.33;3.33;;;0.60;99.90;;;;;;5121786;28;20169;-68
2022/01/06 08:25:47;;;;;;;21.45;4.03;;;0.60;99.90;;;;;;5105940;28;20047;-68
2022/01/06 08:28:13;;;;;;;17.92;3.35;;;0.60;99.90;;;;;;5124302;28;20051;-68
2022/01/06 08:30:39;;;;;;;15.52;2.78;;;0.70;99.90;;;;;;5103194;28;20043;-67
2022/01/06 08:33:04;;;;;;;19.30;2.88;;;0.80;99.90;;;;;;5138673;28;20042;-67
2022/01/06 08:35:31;;;;;;;23.45;2.85;;;0.80;99.90;;;;;;5138694;28;20082;-68
2022/01/06 08:37:57;;;;;;;23.23;3.05;;;0.70;99.90;;;;;;5103920;28;20059;-70
2022/01/06 08:40:22;;;;;;;14.27;2.45;;;0.80;99.90;;;;;;5119427;28;20036;-67
2022/01/06 08:42:48;;;;;;;17.08;2.80;;;0.70;99.90;;;;;;5123341;28;20181;-68
2022/01/06 08:45:18;;;;;;;21.15;3.47;;;0.80;99.90;;;;;;5096620;27;20035;-70
2022/01/06 08:47:45;;;;;;;19.75;3.60;;;0.80;99.90;;;;;;5124852;27;20061;-70
2022/01/06 08:50:11;;;;;;;15.63;2.67;;;0.80;99.90;;;;;;5127272;27;20051;-70
2022/01/06 08:52:37;;;;;;;21.38;3.03;;;0.90;99.90;;;;;;5122453;27;20097;-69
2022/01/06 08:55:05;;;;;;;19.48;2.60;;;0.90;99.90;;;;;;5111911;28;20123;-70
2022/01/06 08:57:31;;;;;;;22.02;3.92;;;1.00;99.90;;;;;;5119907;28;20102;-70
2022/01/06 08:59:57;;;;;;;16.20;4.20;;;1.10;99.90;;;;;;5112263;27;20072;-70
2022/01/06 09:02:23;;;;;;;18.02;2.85;;;1.00;99.90;;;;;;5129300;27;20043;-69
2022/01/06 09:04:49;;;;;;;16.70;2.80;;;1.00;99.90;;;;;;5111489;27;20139;-67
2022/01/06 09:07:15;;;;;;;26.92;3.80;;;1.10;99.90;;;;;;5134320;27;20059;-67
2022/01/06 09:09:41;;;;;;;23.05;3.33;;;1.20;99.90;;;;;;5111125;28;20035;-67
2022/01/06 09:12:08;;;;;;;21.27;4.03;;;1.20;99.90;;;;;;5105520;27;20043;-68
2022/01/06 09:14:33;;;;;;;21.75;3.03;;;1.30;99.90;;;;;;5097265;28;20170;-67
2022/01/06 09:17:00;;;;;;;14.60;2.75;;;1.30;99.90;;;;;;5142500;27;20079;-67
2022/01/06 09:19:26;;;;;;;17.08;2.92;;;1.30;99.90;;;;;;5105916;28;20040;-67
2022/01/06 09:21:52;;;;;;;21.73;3.88;;;1.30;99.90;;;;;;5126648;27;20525;-67
2022/01/06 09:24:18;;;;;;;20.60;3.10;;;1.20;99.90;;;;;;5117004;28;20044;-67
2022/01/06 09:26:44;;;;;;;20.08;3.55;;;1.30;99.90;;;;;;5139776;27;20055;-67
2022/01/06 09:29:13;;;;;;;19.25;3.17;;;1.40;99.90;;;;;;5117031;27;20039;-67
2022/01/06 09:31:41;;;;;;;18.77;3.20;;;1.40;99.90;;;;;;5127192;27;20146;-67
2022/01/06 09:34:08;;;;;;;20.88;4.68;;;1.50;99.90;;;;;;5108537;28;20040;-67
2022/01/06 09:36:34;;;;;;;20.23;3.20;;;1.40;99.90;;;;;;5138800;27;20046;-68
2022/01/06 09:39:01;;;;;;;14.60;2.85;;;1.50;99.90;;;;;;5122044;27;20053;-67
2022/01/06 09:41:27;;;;;;;20.60;3.20;;;1.60;99.90;;;;;;5122269;27;20050;-66
2022/01/06 09:43:54;;;;;;;21.17;4.55;;;1.70;99.90;;;;;;5125983;27;20058;-68
2022/01/06 09:46:21;;;;;;;15.70;3.83;;;1.80;99.90;;;;;;5122288;27;20051;-67
2022/01/06 09:48:48;;;;;;;17.15;3.40;;;2.00;99.90;;;;;;5123611;27;20411;-68
2022/01/06 09:51:15;;;;;;;16.38;2.95;;;2.10;99.90;;;;;;5145348;27;20047;-67
2022/01/06 09:53:41;;;;;;;21.02;3.97;;;2.20;99.90;;;;;;5118631;28;20435;-71
2022/01/06 09:56:08;;;;;;;20.17;3.65;;;2.30;99.90;;;;;;5103069;27;20042;-68
2022/01/06 09:58:34;;;;;;;16.77;3.55;;;2.40;99.90;;;;;;5125349;27;20087;-68
2022/01/06 10:01:00;;;;;;;10.07;2.63;;;2.50;99.90;;;;;;5124941;27;20213;-68
2022/01/06 10:03:45;;;;;;;16.77;3.25;;;2.60;99.90;;;;;;5127009;27;20104;-71
2022/01/06 10:06:18;;;;;;;37.17;6.55;;;2.70;99.90;;;;;;5114647;27;20114;-69
2022/01/06 10:08:50;;;;;;;20.88;4.32;;;2.70;99.90;;;;;;5131671;27;20040;-70
2022/01/06 10:11:19;;;;;;;19.50;3.72;;;2.80;99.90;;;;;;5121281;27;20130;-71
2022/01/06 10:13:58;;;;;;;20.88;3.53;;;2.90;99.90;;;;;;5108263;27;20074;-71
2022/01/06 10:16:24;;;;;;;14.40;4.03;;;3.00;99.90;;;;;;5120697;27;20111;-76
2022/01/06 10:19:00;;;;;;;19.20;3.28;;;3.10;99.90;;;;;;5123344;27;20047;-69
2022/01/06 10:21:30;;;;;;;20.33;4.10;;;3.10;99.90;;;;;;5121820;27;20182;-70
2022/01/06 10:24:07;;;;;;;26.40;4.03;;;3.10;99.90;;;;;;5123271;27;20050;-70
2022/01/06 10:26:34;;;;;;;23.30;4.72;;;3.10;99.90;;;;;;5122594;27;20043;-70
2022/01/06 10:29:00;;;;;;;15.82;3.53;;;3.10;99.90;;;;;;5123793;27;20050;-70
2022/01/06 10:31:30;;;;;;;21.23;4.47;;;3.20;99.90;;;;;;5119361;27;20042;-72
2022/01/06 10:33:57;;;;;;;19.08;3.88;;;3.20;99.90;;;;;;5122492;27;20043;-70
2022/01/06 10:36:31;;;;;;;19.75;3.80;;;3.20;99.90;;;;;;5118956;27;20039;-68
2022/01/06 10:38:59;;;;;;;22.17;4.47;;;3.50;99.90;;;;;;5110744;28;20134;-71
2022/01/06 10:41:27;;;;;;;19.55;3.85;;;3.40;99.90;;;;;;5119188;27;20063;-66
2022/01/06 10:43:55;;;;;;;21.48;4.00;;;3.50;99.90;;;;;;5123372;27;20042;-73
2022/01/06 10:46:31;;;;;;;14.02;3.40;;;3.50;99.90;;;;;;5112576;27;20424;-71
2022/01/06 10:49:05;;;;;;;18.35;4.68;;;3.50;99.90;;;;;;5122385;27;20055;-68
2022/01/06 10:51:42;;;;;;;19.45;5.15;;;3.60;99.90;;;;;;5139951;27;20051;-70
2022/01/06 10:54:14;;;;;;;20.67;4.63;;;3.70;99.90;;;;;;5117744;28;20242;-68
2022/01/06 10:56:40;;;;;;;18.25;4.03;;;3.80;99.90;;;;;;5123936;27;20046;-67
2022/01/06 10:59:07;;;;;;;13.63;3.38;;;3.80;99.90;;;;;;5122170;27;20059;-67
2022/01/06 11:01:34;;;;;;;20.23;3.95;;;4.00;99.90;;;;;;5119949;27;20044;-67
2022/01/06 11:04:01;;;;;;;19.77;3.88;;;3.90;99.90;;;;;;5129602;27;20050;-67
2022/01/06 11:06:27;;;;;;;19.52;3.30;;;4.10;99.90;;;;;;5119605;27;20111;-70
2022/01/06 11:08:53;;;;;;;24.83;3.72;;;4.20;99.90;;;;;;5123624;27;20032;-66
2022/01/06 11:11:31;;;;;;;22.90;4.20;;;4.30;99.90;;;;;;5118776;27;20124;-66
2022/01/06 11:13:57;;;;;;;22.52;3.20;;;4.40;99.90;;;;;;5109050;27;20059;-67
2022/01/06 11:16:23;;;;;;;22.02;3.30;;;4.50;99.90;;;;;;5123773;27;20409;-70
2022/01/06 11:18:52;;;;;;;16.85;3.05;;;4.50;99.90;;;;;;5135856;27;20040;-66
2022/01/06 11:21:25;;;;;;;23.35;3.90;;;4.60;99.90;;;;;;5122429;27;20189;-66
2022/01/06 11:24:17;;;;;;;22.15;3.50;;;4.70;99.90;;;;;;5118391;27;20068;-66
2022/01/06 11:27:06;;;;;;;15.48;2.72;;;4.80;99.90;;;;;;5125804;27;20070;-66
2022/01/06 11:29:35;;;;;;;22.77;3.92;;;4.80;99.90;;;;;;5116713;28;20131;-66
2022/01/06 11:32:16;;;;;;;18.85;4.00;;;4.90;99.90;;;;;;5124515;27;20050;-66
2022/01/06 11:34:42;;;;;;;17.83;4.25;;;5.00;99.90;;;;;;5116446;27;20050;-66
2022/01/06 11:37:13;;;;;;;17.08;3.30;;;5.10;99.90;;;;;;5135294;27;20066;-66
2022/01/06 11:39:39;;;;;;;17.85;3.40;;;5.10;99.90;;;;;;5116385;28;20054;-67
2022/01/06 11:42:17;;;;;;;22.20;4.32;;;5.30;99.90;;;;;;5141993;27;20076;-66
2022/01/06 11:44:54;;;;;;;23.38;3.90;;;5.30;99.90;;;;;;5120028;28;20096;-66
2022/01/06 11:47:31;;;;;;;18.80;3.60;;;5.30;99.90;;;;;;5126987;27;20647;-65
2022/01/06 11:50:25;;;;;;;13.95;3.35;;;5.40;99.90;;;;;;5116829;28;20047;-66
2022/01/06 11:52:52;;;;;;;18.10;4.63;;;5.50;99.90;;;;;;5111636;27;20809;-66
2022/01/06 11:55:19;;;;;;;20.38;4.20;;;5.60;99.90;;;;;;5117416;28;20048;-66
2022/01/06 11:57:45;;;;;;;18.67;4.07;;;5.60;99.90;;;;;;5139350;27;20047;-66
2022/01/06 12:00:26;;;;;;;20.60;4.18;;;5.70;99.90;;;;;;5115618;28;20054;-66
2022/01/06 12:03:03;;;;;;;19.90;3.20;;;5.60;99.90;;;;;;5131634;27;20084;-66
2022/01/06 12:05:44;;;;;;;13.50;2.85;;;5.70;99.90;;;;;;5108271;28;20263;-65
2022/01/06 12:08:10;;;;;;;17.35;2.65;;;5.80;99.90;;;;;;5097832;28;20044;-66
2022/01/06 12:10:43;;;;;;;15.43;3.20;;;5.80;99.90;;;;;;5106958;27;20471;-67
2022/01/06 12:13:09;;;;;;;15.18;2.97;;;5.90;99.90;;;;;;5134968;27;20044;-66
2022/01/06 12:15:49;;;;;;;16.45;2.88;;;5.80;99.90;;;;;;5106671;27;20051;-66
2022/01/06 12:18:25;;;;;;;19.27;3.92;;;5.90;99.90;;;;;;5133059;27;20423;-66
2022/01/06 12:20:53;;;;;;;18.85;2.47;;;5.90;99.90;;;;;;5113299;27;20079;-66
2022/01/06 12:23:19;;;;;;;13.43;2.97;;;6.00;99.90;;;;;;5135928;27;20043;-66
2022/01/06 12:26:03;;;;;;;19.65;3.45;;;6.00;99.90;;;;;;5145708;27;20040;-66
2022/01/06 12:28:32;;;;;;;20.77;2.42;;;5.90;99.90;;;;;;5131824;27;20047;-66
2022/01/06 12:31:05;;;;;;;15.40;2.58;;;5.90;99.90;;;;;;5114526;27;20064;-66
2022/01/06 12:33:41;;;;;;;17.63;3.60;;;6.00;99.90;;;;;;5129869;27;20140;-66
2022/01/06 12:36:06;;;;;;;18.58;3.35;;;6.10;99.90;;;;;;5145771;27;20119;-66
2022/01/06 12:38:34;;;;;;;20.85;4.78;;;6.00;99.90;;;;;;5115645;28;20087;-66
2022/01/06 12:41:00;;;;;;;17.55;3.55;;;6.00;99.90;;;;;;5110190;27;20107;-66
2022/01/06 12:43:33;;;;;;;12.15;2.38;;;6.00;99.90;;;;;;5144550;27;20058;-66
2022/01/06 12:46:03;;;;;;;21.23;3.63;;;6.00;99.90;;;;;;5106390;27;20393;-66
2022/01/06 12:48:32;;;;;;;18.63;3.17;;;6.00;99.90;;;;;;5127768;27;20114;-66
2022/01/06 12:50:58;;;;;;;16.35;2.80;;;6.10;99.90;;;;;;5109869;27;20051;-66
2022/01/06 12:53:33;;;;;;;14.70;3.55;;;6.10;99.90;;;;;;5135704;27;20058;-66
2022/01/06 12:55:59;;;;;;;16.85;3.60;;;6.00;99.90;;;;;;5101751;27;20064;-66
2022/01/06 12:58:34;;;;;;;14.90;3.00;;;6.10;99.90;;;;;;5142934;27;20056;-66
2022/01/06 13:01:04;;;;;;;14.55;2.55;;;6.10;99.90;;;;;;5112945;27;20100;-66